sensor_id;sensor_type;location;lat;lon;timestamp;temperature;humidity
21403;DHT22;10862;51.886;17.078;2022-10-31T00:00:54;12.00;99.90
21403;DHT22;10862;51.886;17.078;2022-10-31T00:03:20;11.90;99.90
21403;DHT22;10862;51.886;17.078;2022-10-31T00:05:47;11.70;99.90
21403;DHT22;10862;51.886;17.078;2022-10-31T00:08:14;11.40;99.90
21403;DHT22;10862;51.886;17.078;2022-10-31T00:10:40;11.20;99.90
21403;DHT22;10862;51.886;17.078;2022-10-31T00:13:07;11.10;99.90
21403;DHT22;10862;51.886;17.078;2022-10-31T00:15:37;11.00;99.90
21403;DHT22;10862;51.886;17.078;2022-10-31T00:18:04;11.10;99.90
21403;DHT22;10862;51.886;17.078;2022-10-31T00:20:31;11.10;99.90
21403;DHT22;10862;51.886;17.078;2022-10-31T00:23:00;11.10;99.90
21403;DHT22;10862;51.886;17.078;2022-10-31T00:25:27;11.20;99.90
21403;DHT22;10862;51.886;17.078;2022-10-31T00:27:52;11.20;99.90
21403;DHT22;10862;51.886;17.078;2022-10-31T00:30:18;11.20;99.90
21403;DHT22;10862;51.886;17.078;2022-10-31T00:32:44;11.20;99.90
21403;DHT22;10862;51.886;17.078;2022-10-31T00:35:09;11.30;99.90
21403;DHT22;10862;51.886;17.078;2022-10-31T00:37:35;11.20;99.90
21403;DHT22;10862;51.886;17.078;2022-10-31T00:40:01;11.30;99.90
21403;DHT22;10862;51.886;17.078;2022-10-31T00:42:26;11.40;99.90
21403;DHT22;10862;51.886;17.078;2022-10-31T00:44:52;11.60;99.90
21403;DHT22;10862;51.886;17.078;2022-10-31T00:47:17;11.60;99.90
21403;DHT22;10862;51.886;17.078;2022-10-31T00:49:43;11.60;99.90
21403;DHT22;10862;51.886;17.078;2022-10-31T00:52:09;11.50;99.90
21403;DHT22;10862;51.886;17.078;2022-10-31T00:54:34;11.60;99.90
21403;DHT22;10862;51.886;17.078;2022-10-31T00:57:00;11.50;99.90
21403;DHT22;10862;51.886;17.078;2022-10-31T00:59:25;11.50;99.90
21403;DHT22;10862;51.886;17.078;2022-10-31T01:01:51;11.50;99.90
21403;DHT22;10862;51.886;17.078;2022-10-31T01:04:17;11.50;99.90
21403;DHT22;10862;51.886;17.078;2022-10-31T01:06:42;11.30;99.90
21403;DHT22;10862;51.886;17.078;2022-10-31T01:09:08;11.00;99.90
21403;DHT22;10862;51.886;17.078;2022-10-31T01:11:33;10.80;99.90
21403;DHT22;10862;51.886;17.078;2022-10-31T01:13:59;10.60;99.90
21403;DHT22;10862;51.886;17.078;2022-10-31T01:16:26;10.70;99.90
21403;DHT22;10862;51.886;17.078;2022-10-31T01:18:52;10.90;99.90
21403;DHT22;10862;51.886;17.078;2022-10-31T01:21:23;11.10;99.90
21403;DHT22;10862;51.886;17.078;2022-10-31T01:23:50;11.30;99.90
21403;DHT22;10862;51.886;17.078;2022-10-31T01:26:25;11.30;99.90
21403;DHT22;10862;51.886;17.078;2022-10-31T01:28:59;11.30;99.90
21403;DHT22;10862;51.886;17.078;2022-10-31T01:31:27;11.30;99.90
21403;DHT22;10862;51.886;17.078;2022-10-31T01:33:54;11.20;99.90
21403;DHT22;10862;51.886;17.078;2022-10-31T01:36:22;11.10;99.90
21403;DHT22;10862;51.886;17.078;2022-10-31T01:38:50;11.10;99.90
21403;DHT22;10862;51.886;17.078;2022-10-31T01:41:19;11.00;99.90
21403;DHT22;10862;51.886;17.078;2022-10-31T01:46:11;11.00;99.90
21403;DHT22;10862;51.886;17.078;2022-10-31T01:48:38;10.90;99.90
21403;DHT22;10862;51.886;17.078;2022-10-31T01:51:05;10.90;99.90
21403;DHT22;10862;51.886;17.078;2022-10-31T01:53:31;11.00;99.90
21403;DHT22;10862;51.886;17.078;2022-10-31T01:55:57;11.10;99.90
21403;DHT22;10862;51.886;17.078;2022-10-31T01:58:26;11.10;99.90
21403;DHT22;10862;51.886;17.078;2022-10-31T02:00:56;11.10;99.90
21403;DHT22;10862;51.886;17.078;2022-10-31T02:03:22;11.00;99.90
21403;DHT22;10862;51.886;17.078;2022-10-31T02:05:49;11.00;99.90
21403;DHT22;10862;51.886;17.078;2022-10-31T02:08:31;10.90;99.90
21403;DHT22;10862;51.886;17.078;2022-10-31T02:11:00;11.00;99.90
21403;DHT22;10862;51.886;17.078;2022-10-31T02:13:26;11.00;99.90
21403;DHT22;10862;51.886;17.078;2022-10-31T02:15:57;10.90;99.90
21403;DHT22;10862;51.886;17.078;2022-10-31T02:18:27;10.90;99.90
21403;DHT22;10862;51.886;17.078;2022-10-31T02:21:01;10.90;99.90
21403;DHT22;10862;51.886;17.078;2022-10-31T02:23:37;10.90;99.90
21403;DHT22;10862;51.886;17.078;2022-10-31T02:32:28;10.90;99.90
21403;DHT22;10862;51.886;17.078;2022-10-31T02:40:33;11.20;99.90
21403;DHT22;10862;51.886;17.078;2022-10-31T02:43:21;11.00;99.90
21403;DHT22;10862;51.886;17.078;2022-10-31T02:48:23;10.90;99.90
21403;DHT22;10862;51.886;17.078;2022-10-31T02:50:55;10.70;99.90
21403;DHT22;10862;51.886;17.078;2022-10-31T02:53:21;10.40;99.90
21403;DHT22;10862;51.886;17.078;2022-10-31T02:58:33;10.60;99.90
21403;DHT22;10862;51.886;17.078;2022-10-31T03:07:08;10.70;99.90
21403;DHT22;10862;51.886;17.078;2022-10-31T03:12:46;10.90;99.90
21403;DHT22;10862;51.886;17.078;2022-10-31T03:15:14;10.90;99.90
21403;DHT22;10862;51.886;17.078;2022-10-31T03:17:48;11.00;99.90
21403;DHT22;10862;51.886;17.078;2022-10-31T03:20:18;10.90;99.90
21403;DHT22;10862;51.886;17.078;2022-10-31T03:22:45;11.00;99.90
21403;DHT22;10862;51.886;17.078;2022-10-31T03:25:12;11.00;99.90
21403;DHT22;10862;51.886;17.078;2022-10-31T03:27:40;11.00;99.90
21403;DHT22;10862;51.886;17.078;2022-10-31T03:30:07;11.00;99.90
21403;DHT22;10862;51.886;17.078;2022-10-31T03:32:54;11.00;99.90
21403;DHT22;10862;51.886;17.078;2022-10-31T03:35:23;10.80;99.90
21403;DHT22;10862;51.886;17.078;2022-10-31T03:37:51;10.50;99.90
21403;DHT22;10862;51.886;17.078;2022-10-31T03:40:21;10.40;99.90
21403;DHT22;10862;51.886;17.078;2022-10-31T03:42:53;10.40;99.90
21403;DHT22;10862;51.886;17.078;2022-10-31T03:45:30;10.40;99.90
21403;DHT22;10862;51.886;17.078;2022-10-31T03:47:57;10.10;99.90
21403;DHT22;10862;51.886;17.078;2022-10-31T03:50:28;10.00;99.90
21403;DHT22;10862;51.886;17.078;2022-10-31T03:53:09;10.00;99.90
21403;DHT22;10862;51.886;17.078;2022-10-31T03:55:47;10.10;99.90
21403;DHT22;10862;51.886;17.078;2022-10-31T03:58:36;10.10;99.90
21403;DHT22;10862;51.886;17.078;2022-10-31T04:01:06;10.20;99.90
21403;DHT22;10862;51.886;17.078;2022-10-31T04:03:36;10.20;99.90
21403;DHT22;10862;51.886;17.078;2022-10-31T04:06:08;10.20;99.90
21403;DHT22;10862;51.886;17.078;2022-10-31T04:08:42;10.10;99.90
21403;DHT22;10862;51.886;17.078;2022-10-31T04:11:09;10.00;99.90
21403;DHT22;10862;51.886;17.078;2022-10-31T04:13:38;10.00;99.90
21403;DHT22;10862;51.886;17.078;2022-10-31T04:16:05;10.00;99.90
21403;DHT22;10862;51.886;17.078;2022-10-31T04:18:31;10.00;99.90
21403;DHT22;10862;51.886;17.078;2022-10-31T04:21:06;10.00;99.90
21403;DHT22;10862;51.886;17.078;2022-10-31T04:23:32;10.00;99.90
21403;DHT22;10862;51.886;17.078;2022-10-31T04:25:58;10.20;99.90
21403;DHT22;10862;51.886;17.078;2022-10-31T04:28:24;10.00;99.90
21403;DHT22;10862;51.886;17.078;2022-10-31T04:30:50;9.90;99.90
21403;DHT22;10862;51.886;17.078;2022-10-31T04:33:15;9.80;99.90
21403;DHT22;10862;51.886;17.078;2022-10-31T04:35:41;9.70;99.90
21403;DHT22;10862;51.886;17.078;2022-10-31T04:38:07;9.80;99.90
21403;DHT22;10862;51.886;17.078;2022-10-31T04:40:32;9.90;99.90
21403;DHT22;10862;51.886;17.078;2022-10-31T04:42:58;9.60;99.90
21403;DHT22;10862;51.886;17.078;2022-10-31T04:45:23;9.50;99.90
21403;DHT22;10862;51.886;17.078;2022-10-31T04:47:49;9.60;99.90
21403;DHT22;10862;51.886;17.078;2022-10-31T04:50:15;9.70;99.90
21403;DHT22;10862;51.886;17.078;2022-10-31T04:52:42;9.90;99.90
21403;DHT22;10862;51.886;17.078;2022-10-31T04:55:08;10.00;99.90
21403;DHT22;10862;51.886;17.078;2022-10-31T04:57:47;9.90;99.90
21403;DHT22;10862;51.886;17.078;2022-10-31T05:00:16;9.60;99.90
21403;DHT22;10862;51.886;17.078;2022-10-31T05:02:48;9.50;99.90
21403;DHT22;10862;51.886;17.078;2022-10-31T05:05:16;9.40;99.90
21403;DHT22;10862;51.886;17.078;2022-10-31T05:07:43;9.30;99.90
21403;DHT22;10862;51.886;17.078;2022-10-31T05:10:11;9.40;99.90
21403;DHT22;10862;51.886;17.078;2022-10-31T05:12:37;9.50;99.90
21403;DHT22;10862;51.886;17.078;2022-10-31T05:15:04;9.50;99.90
21403;DHT22;10862;51.886;17.078;2022-10-31T05:17:30;9.50;99.90
21403;DHT22;10862;51.886;17.078;2022-10-31T05:19:56;9.60;99.90
21403;DHT22;10862;51.886;17.078;2022-10-31T05:22:22;9.70;99.90
21403;DHT22;10862;51.886;17.078;2022-10-31T05:24:47;9.90;99.90
21403;DHT22;10862;51.886;17.078;2022-10-31T05:27:13;9.90;99.90
21403;DHT22;10862;51.886;17.078;2022-10-31T05:29:38;9.90;99.90
21403;DHT22;10862;51.886;17.078;2022-10-31T05:32:04;9.80;99.90
21403;DHT22;10862;51.886;17.078;2022-10-31T05:34:29;9.50;99.90
21403;DHT22;10862;51.886;17.078;2022-10-31T05:36:55;9.30;99.90
21403;DHT22;10862;51.886;17.078;2022-10-31T05:39:21;9.00;99.90
21403;DHT22;10862;51.886;17.078;2022-10-31T05:41:46;8.80;99.90
21403;DHT22;10862;51.886;17.078;2022-10-31T05:44:12;8.70;99.90
21403;DHT22;10862;51.886;17.078;2022-10-31T05:46:37;8.80;99.90
21403;DHT22;10862;51.886;17.078;2022-10-31T05:49:03;9.00;99.90
21403;DHT22;10862;51.886;17.078;2022-10-31T05:51:28;8.90;99.90
21403;DHT22;10862;51.886;17.078;2022-10-31T05:53:54;8.90;99.90
21403;DHT22;10862;51.886;17.078;2022-10-31T05:56:20;8.90;99.90
21403;DHT22;10862;51.886;17.078;2022-10-31T05:58:45;8.90;99.90
21403;DHT22;10862;51.886;17.078;2022-10-31T06:01:11;9.00;99.90
21403;DHT22;10862;51.886;17.078;2022-10-31T06:03:36;9.00;99.90
21403;DHT22;10862;51.886;17.078;2022-10-31T06:06:02;8.90;99.90
21403;DHT22;10862;51.886;17.078;2022-10-31T06:08:28;9.00;99.90
21403;DHT22;10862;51.886;17.078;2022-10-31T06:10:53;9.30;99.90
21403;DHT22;10862;51.886;17.078;2022-10-31T06:13:19;9.50;99.90
21403;DHT22;10862;51.886;17.078;2022-10-31T06:15:44;9.50;99.90
21403;DHT22;10862;51.886;17.078;2022-10-31T06:18:10;9.50;99.90
21403;DHT22;10862;51.886;17.078;2022-10-31T06:20:36;9.50;99.90
21403;DHT22;10862;51.886;17.078;2022-10-31T06:23:02;9.40;99.90
21403;DHT22;10862;51.886;17.078;2022-10-31T06:25:28;9.50;99.90
21403;DHT22;10862;51.886;17.078;2022-10-31T06:27:54;9.50;99.90
21403;DHT22;10862;51.886;17.078;2022-10-31T06:30:20;9.50;99.90
21403;DHT22;10862;51.886;17.078;2022-10-31T06:32:46;9.50;99.90
21403;DHT22;10862;51.886;17.078;2022-10-31T06:35:11;9.70;99.90
21403;DHT22;10862;51.886;17.078;2022-10-31T06:37:37;9.90;99.90
21403;DHT22;10862;51.886;17.078;2022-10-31T06:40:03;10.00;99.90
21403;DHT22;10862;51.886;17.078;2022-10-31T06:42:29;10.20;99.90
21403;DHT22;10862;51.886;17.078;2022-10-31T06:44:54;10.40;99.90
21403;DHT22;10862;51.886;17.078;2022-10-31T06:47:20;10.60;99.90
21403;DHT22;10862;51.886;17.078;2022-10-31T06:49:46;10.70;99.90
21403;DHT22;10862;51.886;17.078;2022-10-31T06:52:11;10.70;99.90
21403;DHT22;10862;51.886;17.078;2022-10-31T06:54:37;10.80;99.90
21403;DHT22;10862;51.886;17.078;2022-10-31T06:57:02;10.70;99.90
21403;DHT22;10862;51.886;17.078;2022-10-31T06:59:28;10.80;99.90
21403;DHT22;10862;51.886;17.078;2022-10-31T07:01:54;10.90;99.90
21403;DHT22;10862;51.886;17.078;2022-10-31T07:04:19;10.90;99.90
21403;DHT22;10862;51.886;17.078;2022-10-31T07:06:45;11.00;99.90
21403;DHT22;10862;51.886;17.078;2022-10-31T07:09:10;11.10;99.90
21403;DHT22;10862;51.886;17.078;2022-10-31T07:11:36;11.10;99.90
21403;DHT22;10862;51.886;17.078;2022-10-31T07:14:02;11.30;99.90
21403;DHT22;10862;51.886;17.078;2022-10-31T07:16:27;11.50;99.90
21403;DHT22;10862;51.886;17.078;2022-10-31T07:18:53;11.60;99.90
21403;DHT22;10862;51.886;17.078;2022-10-31T07:21:19;11.70;99.90
21403;DHT22;10862;51.886;17.078;2022-10-31T07:23:47;11.70;99.90
21403;DHT22;10862;51.886;17.078;2022-10-31T07:26:14;11.70;99.90
21403;DHT22;10862;51.886;17.078;2022-10-31T07:28:39;11.80;99.90
21403;DHT22;10862;51.886;17.078;2022-10-31T07:31:05;11.80;99.90
21403;DHT22;10862;51.886;17.078;2022-10-31T07:33:30;11.80;99.90
21403;DHT22;10862;51.886;17.078;2022-10-31T07:35:56;11.90;99.90
21403;DHT22;10862;51.886;17.078;2022-10-31T07:38:22;11.90;99.90
21403;DHT22;10862;51.886;17.078;2022-10-31T07:40:51;12.10;99.90
21403;DHT22;10862;51.886;17.078;2022-10-31T07:43:18;12.10;99.90
21403;DHT22;10862;51.886;17.078;2022-10-31T07:45:48;12.20;99.90
21403;DHT22;10862;51.886;17.078;2022-10-31T07:48:14;12.20;99.90
21403;DHT22;10862;51.886;17.078;2022-10-31T07:50:39;12.30;99.90
21403;DHT22;10862;51.886;17.078;2022-10-31T07:53:10;12.40;99.90
21403;DHT22;10862;51.886;17.078;2022-10-31T07:55:36;12.40;99.90
21403;DHT22;10862;51.886;17.078;2022-10-31T07:58:04;12.30;99.90
21403;DHT22;10862;51.886;17.078;2022-10-31T08:00:31;12.30;99.90
21403;DHT22;10862;51.886;17.078;2022-10-31T08:03:06;12.60;99.90
21403;DHT22;10862;51.886;17.078;2022-10-31T08:05:32;12.70;99.90
21403;DHT22;10862;51.886;17.078;2022-10-31T08:07:58;12.60;99.90
21403;DHT22;10862;51.886;17.078;2022-10-31T08:10:25;12.60;99.90
21403;DHT22;10862;51.886;17.078;2022-10-31T08:13:02;12.80;99.90
21403;DHT22;10862;51.886;17.078;2022-10-31T08:15:28;12.90;99.90
21403;DHT22;10862;51.886;17.078;2022-10-31T08:17:54;13.00;99.90
21403;DHT22;10862;51.886;17.078;2022-10-31T08:20:21;13.00;99.90
21403;DHT22;10862;51.886;17.078;2022-10-31T08:23:00;13.10;99.90
21403;DHT22;10862;51.886;17.078;2022-10-31T08:25:27;13.10;99.90
21403;DHT22;10862;51.886;17.078;2022-10-31T08:27:55;13.10;99.90
21403;DHT22;10862;51.886;17.078;2022-10-31T08:30:22;13.10;99.90
21403;DHT22;10862;51.886;17.078;2022-10-31T08:32:58;13.20;99.90
21403;DHT22;10862;51.886;17.078;2022-10-31T08:35:23;13.30;99.90
21403;DHT22;10862;51.886;17.078;2022-10-31T08:37:53;13.40;99.90
21403;DHT22;10862;51.886;17.078;2022-10-31T08:40:19;13.40;99.90
21403;DHT22;10862;51.886;17.078;2022-10-31T08:42:45;13.40;99.90
21403;DHT22;10862;51.886;17.078;2022-10-31T08:45:10;13.70;99.90
21403;DHT22;10862;51.886;17.078;2022-10-31T08:47:36;13.80;99.90
21403;DHT22;10862;51.886;17.078;2022-10-31T08:50:02;13.80;99.90
21403;DHT22;10862;51.886;17.078;2022-10-31T08:52:28;13.90;99.90
21403;DHT22;10862;51.886;17.078;2022-10-31T08:54:53;13.90;99.90
21403;DHT22;10862;51.886;17.078;2022-10-31T08:57:19;14.00;99.90
21403;DHT22;10862;51.886;17.078;2022-10-31T08:59:44;14.30;99.90
21403;DHT22;10862;51.886;17.078;2022-10-31T09:02:10;14.40;99.90
21403;DHT22;10862;51.886;17.078;2022-10-31T09:04:36;14.40;99.90
21403;DHT22;10862;51.886;17.078;2022-10-31T09:07:01;14.40;99.90
21403;DHT22;10862;51.886;17.078;2022-10-31T09:09:27;14.50;99.90
21403;DHT22;10862;51.886;17.078;2022-10-31T09:11:52;14.70;99.90
21403;DHT22;10862;51.886;17.078;2022-10-31T09:14:18;14.80;99.90
21403;DHT22;10862;51.886;17.078;2022-10-31T09:16:44;15.00;99.90
21403;DHT22;10862;51.886;17.078;2022-10-31T09:19:09;15.40;99.90
21403;DHT22;10862;51.886;17.078;2022-10-31T09:21:35;15.70;99.90
21403;DHT22;10862;51.886;17.078;2022-10-31T09:24:00;15.60;99.90
21403;DHT22;10862;51.886;17.078;2022-10-31T09:26:26;15.70;99.90
21403;DHT22;10862;51.886;17.078;2022-10-31T09:28:52;15.40;99.90
21403;DHT22;10862;51.886;17.078;2022-10-31T09:31:17;15.30;99.90
21403;DHT22;10862;51.886;17.078;2022-10-31T09:33:43;15.60;99.90
21403;DHT22;10862;51.886;17.078;2022-10-31T09:36:08;15.80;99.90
21403;DHT22;10862;51.886;17.078;2022-10-31T09:38:34;15.70;99.90
21403;DHT22;10862;51.886;17.078;2022-10-31T09:41:17;15.60;99.90
21403;DHT22;10862;51.886;17.078;2022-10-31T09:47:17;16.30;99.90
21403;DHT22;10862;51.886;17.078;2022-10-31T09:52:35;16.80;99.90
21403;DHT22;10862;51.886;17.078;2022-10-31T09:55:21;16.90;99.90
21403;DHT22;10862;51.886;17.078;2022-10-31T09:57:49;17.20;99.90
21403;DHT22;10862;51.886;17.078;2022-10-31T10:00:18;17.10;99.90
21403;DHT22;10862;51.886;17.078;2022-10-31T10:02:49;16.90;99.90
21403;DHT22;10862;51.886;17.078;2022-10-31T10:05:21;16.70;99.90
21403;DHT22;10862;51.886;17.078;2022-10-31T10:08:15;16.90;99.90
21403;DHT22;10862;51.886;17.078;2022-10-31T10:11:18;17.00;99.90
21403;DHT22;10862;51.886;17.078;2022-10-31T10:17:05;17.40;99.90
21403;DHT22;10862;51.886;17.078;2022-10-31T10:25:20;17.50;99.90
21403;DHT22;10862;51.886;17.078;2022-10-31T10:33:14;17.50;99.90
21403;DHT22;10862;51.886;17.078;2022-10-31T10:35:50;17.70;99.90
21403;DHT22;10862;51.886;17.078;2022-10-31T10:39:00;17.70;99.90
21403;DHT22;10862;51.886;17.078;2022-10-31T10:41:31;17.60;99.90
21403;DHT22;10862;51.886;17.078;2022-10-31T10:43:57;17.50;99.90
21403;DHT22;10862;51.886;17.078;2022-10-31T10:52:45;17.20;99.90
21403;DHT22;10862;51.886;17.078;2022-10-31T10:55:06;17.20;99.90
21403;DHT22;10862;51.886;17.078;2022-10-31T11:00:25;17.20;99.90
21403;DHT22;10862;51.886;17.078;2022-10-31T11:02:52;17.30;99.90
21403;DHT22;10862;51.886;17.078;2022-10-31T11:05:33;17.10;99.90
21403;DHT22;10862;51.886;17.078;2022-10-31T11:08:00;17.30;99.90
21403;DHT22;10862;51.886;17.078;2022-10-31T11:10:25;17.40;99.90
21403;DHT22;10862;51.886;17.078;2022-10-31T11:15:32;17.10;99.90
21403;DHT22;10862;51.886;17.078;2022-10-31T11:17:59;17.20;99.90
21403;DHT22;10862;51.886;17.078;2022-10-31T11:20:26;17.10;99.90
21403;DHT22;10862;51.886;17.078;2022-10-31T11:23:10;17.40;99.90
21403;DHT22;10862;51.886;17.078;2022-10-31T11:25:48;17.70;99.90
21403;DHT22;10862;51.886;17.078;2022-10-31T11:28:14;17.90;99.90
21403;DHT22;10862;51.886;17.078;2022-10-31T11:31:00;17.90;99.90
21403;DHT22;10862;51.886;17.078;2022-10-31T11:33:37;17.60;99.90
21403;DHT22;10862;51.886;17.078;2022-10-31T11:38:42;17.60;99.90
21403;DHT22;10862;51.886;17.078;2022-10-31T11:41:15;17.70;99.90
21403;DHT22;10862;51.886;17.078;2022-10-31T11:46:40;17.90;99.90
21403;DHT22;10862;51.886;17.078;2022-10-31T11:49:15;18.10;99.90
21403;DHT22;10862;51.886;17.078;2022-10-31T11:51:41;18.10;99.90
21403;DHT22;10862;51.886;17.078;2022-10-31T11:54:19;18.10;99.90
21403;DHT22;10862;51.886;17.078;2022-10-31T11:56:46;18.00;99.90
21403;DHT22;10862;51.886;17.078;2022-10-31T11:59:27;18.10;99.90
21403;DHT22;10862;51.886;17.078;2022-10-31T12:01:54;18.30;99.90
21403;DHT22;10862;51.886;17.078;2022-10-31T12:04:41;18.40;99.90
21403;DHT22;10862;51.886;17.078;2022-10-31T12:07:07;18.60;99.90
21403;DHT22;10862;51.886;17.078;2022-10-31T12:09:34;18.40;99.90
21403;DHT22;10862;51.886;17.078;2022-10-31T12:21:06;18.40;99.90
21403;DHT22;10862;51.886;17.078;2022-10-31T12:26:27;18.50;99.90
21403;DHT22;10862;51.886;17.078;2022-10-31T12:29:16;18.50;99.90
21403;DHT22;10862;51.886;17.078;2022-10-31T12:34:59;18.60;99.90
21403;DHT22;10862;51.886;17.078;2022-10-31T12:48:51;18.30;99.90
21403;DHT22;10862;51.886;17.078;2022-10-31T12:51:35;18.10;99.90
21403;DHT22;10862;51.886;17.078;2022-10-31T12:59:32;18.20;99.90
21403;DHT22;10862;51.886;17.078;2022-10-31T13:05:24;18.10;99.90
21403;DHT22;10862;51.886;17.078;2022-10-31T13:10:37;18.50;99.90
21403;DHT22;10862;51.886;17.078;2022-10-31T13:13:15;18.40;99.90
21403;DHT22;10862;51.886;17.078;2022-10-31T13:16:00;18.30;99.90
21403;DHT22;10862;51.886;17.078;2022-10-31T13:18:33;18.20;99.90
21403;DHT22;10862;51.886;17.078;2022-10-31T13:21:03;18.20;99.90
21403;DHT22;10862;51.886;17.078;2022-10-31T13:23:35;18.40;99.90
21403;DHT22;10862;51.886;17.078;2022-10-31T13:26:10;18.50;99.90
21403;DHT22;10862;51.886;17.078;2022-10-31T13:28:47;18.60;99.90
21403;DHT22;10862;51.886;17.078;2022-10-31T13:31:13;18.50;99.90
21403;DHT22;10862;51.886;17.078;2022-10-31T13:33:47;18.40;99.90
21403;DHT22;10862;51.886;17.078;2022-10-31T13:36:23;18.40;99.90
21403;DHT22;10862;51.886;17.078;2022-10-31T13:38:54;18.10;99.90
21403;DHT22;10862;51.886;17.078;2022-10-31T13:44:26;18.40;99.90
21403;DHT22;10862;51.886;17.078;2022-10-31T13:46:54;18.60;99.90
21403;DHT22;10862;51.886;17.078;2022-10-31T13:57:21;18.20;99.90
21403;DHT22;10862;51.886;17.078;2022-10-31T13:59:54;18.20;99.90
21403;DHT22;10862;51.886;17.078;2022-10-31T14:02:27;18.50;99.90
21403;DHT22;10862;51.886;17.078;2022-10-31T14:05:06;18.60;99.90
21403;DHT22;10862;51.886;17.078;2022-10-31T14:07:45;18.70;99.90
21403;DHT22;10862;51.886;17.078;2022-10-31T14:10:21;18.80;99.90
21403;DHT22;10862;51.886;17.078;2022-10-31T14:12:48;18.80;99.90
21403;DHT22;10862;51.886;17.078;2022-10-31T14:15:17;18.90;99.90
21403;DHT22;10862;51.886;17.078;2022-10-31T14:17:55;18.80;99.90
21403;DHT22;10862;51.886;17.078;2022-10-31T14:23:55;19.10;99.90
21403;DHT22;10862;51.886;17.078;2022-10-31T14:29:02;19.50;99.90
21403;DHT22;10862;51.886;17.078;2022-10-31T14:34:22;19.50;99.90
21403;DHT22;10862;51.886;17.078;2022-10-31T14:52:56;18.70;99.90
21403;DHT22;10862;51.886;17.078;2022-10-31T14:55:23;18.50;99.90
21403;DHT22;10862;51.886;17.078;2022-10-31T14:58:04;18.50;99.90
21403;DHT22;10862;51.886;17.078;2022-10-31T15:00:32;18.30;99.90
21403;DHT22;10862;51.886;17.078;2022-10-31T15:03:24;18.10;99.90
21403;DHT22;10862;51.886;17.078;2022-10-31T15:05:53;17.90;99.90
21403;DHT22;10862;51.886;17.078;2022-10-31T15:08:39;17.70;99.90
21403;DHT22;10862;51.886;17.078;2022-10-31T15:11:22;17.60;99.90
21403;DHT22;10862;51.886;17.078;2022-10-31T15:13:56;17.40;99.90
21403;DHT22;10862;51.886;17.078;2022-10-31T15:18:57;17.10;99.90
21403;DHT22;10862;51.886;17.078;2022-10-31T15:21:25;16.90;99.90
21403;DHT22;10862;51.886;17.078;2022-10-31T15:23:53;16.70;99.90
21403;DHT22;10862;51.886;17.078;2022-10-31T15:26:21;16.80;99.90
21403;DHT22;10862;51.886;17.078;2022-10-31T15:29:01;17.10;99.90
21403;DHT22;10862;51.886;17.078;2022-10-31T15:31:28;16.90;99.90
21403;DHT22;10862;51.886;17.078;2022-10-31T15:33:55;16.60;99.90
21403;DHT22;10862;51.886;17.078;2022-10-31T15:36:24;16.30;99.90
21403;DHT22;10862;51.886;17.078;2022-10-31T15:38:51;16.10;99.90
21403;DHT22;10862;51.886;17.078;2022-10-31T15:43:50;15.80;99.90
21403;DHT22;10862;51.886;17.078;2022-10-31T15:46:16;15.60;99.90
21403;DHT22;10862;51.886;17.078;2022-10-31T15:48:46;15.50;99.90
21403;DHT22;10862;51.886;17.078;2022-10-31T15:51:13;15.30;99.90
21403;DHT22;10862;51.886;17.078;2022-10-31T15:53:48;15.30;99.90
21403;DHT22;10862;51.886;17.078;2022-10-31T15:56:24;15.50;99.90
21403;DHT22;10862;51.886;17.078;2022-10-31T15:58:52;15.70;99.90
21403;DHT22;10862;51.886;17.078;2022-10-31T16:01:36;15.70;99.90
21403;DHT22;10862;51.886;17.078;2022-10-31T16:04:22;15.70;99.90
21403;DHT22;10862;51.886;17.078;2022-10-31T16:07:14;15.20;99.90
21403;DHT22;10862;51.886;17.078;2022-10-31T16:10:00;15.00;99.90
21403;DHT22;10862;51.886;17.078;2022-10-31T16:12:45;14.80;99.90
21403;DHT22;10862;51.886;17.078;2022-10-31T16:15:14;14.70;99.90
21403;DHT22;10862;51.886;17.078;2022-10-31T16:17:43;14.60;99.90
21403;DHT22;10862;51.886;17.078;2022-10-31T16:20:26;14.50;99.90
21403;DHT22;10862;51.886;17.078;2022-10-31T16:22:54;14.50;99.90
21403;DHT22;10862;51.886;17.078;2022-10-31T16:25:34;14.40;99.90
21403;DHT22;10862;51.886;17.078;2022-10-31T16:28:13;14.30;99.90
21403;DHT22;10862;51.886;17.078;2022-10-31T16:30:44;14.20;99.90
21403;DHT22;10862;51.886;17.078;2022-10-31T16:33:29;14.20;99.90
21403;DHT22;10862;51.886;17.078;2022-10-31T16:35:57;14.10;99.90
21403;DHT22;10862;51.886;17.078;2022-10-31T16:38:24;14.10;99.90
21403;DHT22;10862;51.886;17.078;2022-10-31T16:40:50;14.00;99.90
21403;DHT22;10862;51.886;17.078;2022-10-31T16:43:17;13.90;99.90
21403;DHT22;10862;51.886;17.078;2022-10-31T16:45:49;13.90;99.90
21403;DHT22;10862;51.886;17.078;2022-10-31T16:48:17;13.80;99.90
21403;DHT22;10862;51.886;17.078;2022-10-31T16:50:44;13.80;99.90
21403;DHT22;10862;51.886;17.078;2022-10-31T16:53:11;13.70;99.90
21403;DHT22;10862;51.886;17.078;2022-10-31T16:56:01;13.70;99.90
21403;DHT22;10862;51.886;17.078;2022-10-31T16:58:29;13.70;99.90
21403;DHT22;10862;51.886;17.078;2022-10-31T17:00:56;13.60;99.90
21403;DHT22;10862;51.886;17.078;2022-10-31T17:03:22;13.60;99.90
21403;DHT22;10862;51.886;17.078;2022-10-31T17:05:47;13.50;99.90
21403;DHT22;10862;51.886;17.078;2022-10-31T17:08:13;13.40;99.90
21403;DHT22;10862;51.886;17.078;2022-10-31T17:10:40;13.50;99.90
21403;DHT22;10862;51.886;17.078;2022-10-31T17:13:12;13.50;99.90
21403;DHT22;10862;51.886;17.078;2022-10-31T17:15:45;13.40;99.90
21403;DHT22;10862;51.886;17.078;2022-10-31T17:18:13;13.30;99.90
21403;DHT22;10862;51.886;17.078;2022-10-31T17:20:40;13.40;99.90
21403;DHT22;10862;51.886;17.078;2022-10-31T17:23:06;13.40;99.90
21403;DHT22;10862;51.886;17.078;2022-10-31T17:25:33;13.30;99.90
21403;DHT22;10862;51.886;17.078;2022-10-31T17:28:00;13.20;99.90
21403;DHT22;10862;51.886;17.078;2022-10-31T17:30:26;13.10;99.90
21403;DHT22;10862;51.886;17.078;2022-10-31T17:32:52;13.00;99.90
21403;DHT22;10862;51.886;17.078;2022-10-31T17:35:19;13.00;99.90
21403;DHT22;10862;51.886;17.078;2022-10-31T17:37:46;12.80;99.90
21403;DHT22;10862;51.886;17.078;2022-10-31T17:40:14;12.60;99.90
21403;DHT22;10862;51.886;17.078;2022-10-31T17:42:40;12.50;99.90
21403;DHT22;10862;51.886;17.078;2022-10-31T17:45:07;12.30;99.90
21403;DHT22;10862;51.886;17.078;2022-10-31T17:47:33;12.20;99.90
21403;DHT22;10862;51.886;17.078;2022-10-31T17:49:59;12.20;99.90
21403;DHT22;10862;51.886;17.078;2022-10-31T17:52:25;12.20;99.90
21403;DHT22;10862;51.886;17.078;2022-10-31T17:54:50;12.30;99.90
21403;DHT22;10862;51.886;17.078;2022-10-31T17:57:16;12.30;99.90